Time;durP1;ratioP1;P1;durP2;ratioP2;P2;SDS_P1;SDS_P2;PMS_P1;PMS_P2;Temp;Humidity;BMP_temperature;BMP_pressure;BME280_temperature;BME280_humidity;BME280_pressure;Samples;Min_cycle;Max_cycle;Signal;HPM_P1;HPM_P2
2021/12/07 00:01:45;;;;;;;31.40;17.50;;;;;;;1.16;96.81;98707.73;106045;1318;138187;-61
2021/12/07 00:04:13;;;;;;;31.20;18.00;;;;;;;1.16;97.00;98713.51;106185;1319;22524;-61
2021/12/07 00:06:42;;;;;;;32.30;18.10;;;;;;;1.15;97.00;98713.33;105825;1319;23434;-61
2021/12/07 00:09:12;;;;;;;33.20;18.70;;;;;;;1.17;96.75;98710.83;106045;1319;138007;-61
2021/12/07 00:11:41;;;;;;;40.80;18.00;;;;;;;1.18;96.90;98711.68;106186;1320;23099;-60
2021/12/07 00:14:12;;;;;;;34.70;19.20;;;;;;;1.19;97.01;98704.80;106046;1318;137970;-60
2021/12/07 00:16:42;;;;;;;47.70;21.40;;;;;;;1.21;97.08;98704.40;106178;1319;22479;-60
2021/12/07 00:19:11;;;;;;;35.40;20.10;;;;;;;1.22;97.07;98706.52;106130;1319;22563;-61
2021/12/07 00:21:40;;;;;;;37.60;19.60;;;;;;;1.20;96.88;98707.91;106077;1316;138860;-60
2021/12/07 00:24:09;;;;;;;47.10;22.80;;;;;;;1.20;97.01;98710.43;106175;1316;23196;-60
2021/12/07 00:26:38;;;;;;;45.40;22.00;;;;;;;1.19;97.00;98716.30;106120;1316;138724;-61
2021/12/07 00:29:07;;;;;;;78.00;31.60;;;;;;;1.18;97.06;98718.94;106225;1316;23125;-60
2021/12/07 00:31:42;;;;;;;88.00;35.60;;;;;;;1.17;97.04;98717.52;106104;1319;138445;-60
2021/12/07 00:34:23;;;;;;;85.30;35.00;;;;;;;1.16;97.06;98717.42;106169;1319;23156;-60
2021/12/07 00:36:51;;;;;;;131.20;56.20;;;;;;;1.16;96.99;98717.52;106118;1318;22470;-60
2021/12/07 00:39:21;;;;;;;120.90;46.80;;;;;;;1.16;96.99;98716.83;105964;1319;138702;-60
2021/12/07 00:41:49;;;;;;;108.30;48.30;;;;;;;1.16;96.93;98715.33;105229;1319;22479;-60
2021/12/07 00:44:18;;;;;;;95.70;44.10;;;;;;;1.17;96.90;98712.92;106038;1321;139732;-60
2021/12/07 00:46:47;;;;;;;97.60;43.40;;;;;;;1.18;96.95;98713.61;106178;1319;22478;-60
2021/12/07 00:49:16;;;;;;;100.60;43.10;;;;;;;1.19;96.97;98715.52;106180;1321;22538;-61
2021/12/07 00:51:44;;;;;;;82.90;36.80;;;;;;;1.21;96.83;98724.18;106055;1320;138595;-61
2021/12/07 00:54:13;;;;;;;77.90;35.90;;;;;;;1.23;96.84;98731.52;106186;1315;22479;-60
2021/12/07 00:56:41;;;;;;;63.70;27.90;;;;;;;1.24;96.97;98728.12;106130;1319;138174;-61
2021/12/07 00:59:09;;;;;;;54.80;26.90;;;;;;;1.24;97.02;98723.70;105812;1319;22479;-61
2021/12/07 01:01:37;;;;;;;52.80;24.30;;;;;;;1.24;97.02;98710.50;105904;1319;138429;-60
2021/12/07 01:04:06;;;;;;;65.50;33.00;;;;;;;1.24;96.93;98710.58;105143;1325;22461;-60
2021/12/07 01:09:20;;;;;;;53.70;23.90;;;;;;;1.26;96.96;98709.45;106118;1320;138226;-60
2021/12/07 01:25:58;;;;;;;60.70;28.90;;;;;;;1.43;97.08;98718.33;105214;1324;138397;-60
2021/12/07 01:28:37;;;;;;;68.00;28.90;;;;;;;1.45;97.30;98708.88;105289;1328;22448;-60
2021/12/07 01:31:17;;;;;;;64.60;27.90;;;;;;;1.47;97.28;98711.25;105389;1325;22441;-60
2021/12/07 02:01:07;;;;;;;38.60;18.40;;;;;;;1.58;97.10;98723.65;105257;1325;23367;-60
2021/12/07 02:03:38;;;;;;;37.40;18.00;;;;;;;1.59;97.25;98722.21;105175;1325;138978;-60
2021/12/07 02:06:07;;;;;;;39.70;18.20;;;;;;;1.61;96.98;98712.66;104481;1325;22535;-61
2021/12/07 02:08:35;;;;;;;37.30;18.30;;;;;;;1.60;96.90;98705.65;105309;1324;139342;-60
2021/12/07 02:11:03;;;;;;;39.50;18.20;;;;;;;1.59;96.90;98716.76;105410;1324;22429;-60
2021/12/07 02:16:01;;;;;;;37.30;17.40;;;;;;;1.56;96.78;98722.84;105123;1324;138102;-60
2021/12/07 02:18:29;;;;;;;33.10;17.20;;;;;;;1.54;96.67;98721.90;105236;1325;22415;-60
2021/12/07 02:21:13;;;;;;;35.20;16.80;;;;;;;1.55;96.73;98725.28;105347;1325;139002;-60
2021/12/07 02:23:41;;;;;;;38.90;18.70;;;;;;;1.57;96.74;98728.83;105286;1328;22622;-60
2021/12/07 02:26:10;;;;;;;39.70;19.60;;;;;;;1.58;96.76;98734.66;104383;1324;138932;-61
2021/12/07 02:28:39;;;;;;;39.70;20.00;;;;;;;1.60;96.90;98739.80;105364;1325;22436;-61
2021/12/07 02:31:08;;;;;;;44.60;19.00;;;;;;;1.61;96.86;98746.77;105264;1325;22476;-61
2021/12/07 02:33:37;;;;;;;40.30;22.00;;;;;;;1.63;96.86;98754.20;105254;1326;138586;-61
2021/12/07 02:36:06;;;;;;;44.20;19.20;;;;;;;1.65;96.83;98753.81;106047;1319;23196;-61
2021/12/07 02:38:34;;;;;;;36.20;17.60;;;;;;;1.65;96.79;98752.04;105964;1318;140053;-61
2021/12/07 02:41:02;;;;;;;38.90;19.00;;;;;;;1.65;96.85;98747.12;105647;1326;22505;-61
2021/12/07 02:43:30;;;;;;;44.30;18.80;;;;;;;1.66;96.91;98742.36;105501;1325;23213;-61
2021/12/07 02:45:59;;;;;;;46.60;20.90;;;;;;;1.66;96.85;98735.63;105545;1321;138543;-61
2021/12/07 02:48:28;;;;;;;54.10;24.00;;;;;;;1.66;96.84;98732.40;105486;1324;23354;-61
2021/12/07 02:50:57;;;;;;;49.10;23.80;;;;;;;1.67;96.77;98724.96;105440;1322;138386;-61
2021/12/07 02:53:27;;;;;;;49.80;23.50;;;;;;;1.68;96.84;98727.89;105526;1325;22455;-61
2021/12/07 02:55:57;;;;;;;46.90;23.20;;;;;;;1.70;96.88;98727.47;105599;1324;22489;-61
2021/12/07 02:58:25;;;;;;;49.20;23.70;;;;;;;1.70;96.71;98737.09;105412;1324;138146;-61
2021/12/07 03:01:07;;;;;;;36.20;19.30;;;;;;;1.69;96.68;98733.46;105505;1322;22554;-61
2021/12/07 03:03:49;;;;;;;36.90;19.40;;;;;;;1.68;96.65;98734.55;105490;1324;138283;-61
2021/12/07 03:06:25;;;;;;;36.30;19.50;;;;;;;1.65;96.63;98740.73;105672;1321;22525;-61
2021/12/07 03:26:01;;;;;;;27.40;14.50;;;;;;;1.61;96.59;98725.45;106095;1318;22236;-61
2021/12/07 03:28:32;;;;;;;24.00;13.30;;;;;;;1.64;96.63;98725.11;105993;1319;139926;-61
2021/12/07 03:31:01;;;;;;;27.70;14.60;;;;;;;1.66;96.65;98721.63;106133;1318;22404;-61
2021/12/07 03:33:30;;;;;;;30.70;14.70;;;;;;;1.67;96.65;98717.86;106091;1319;138510;-62
2021/12/07 03:36:00;;;;;;;29.60;15.40;;;;;;;1.66;96.65;98727.77;104748;1322;24335;-61
2021/12/07 03:38:28;;;;;;;30.40;15.60;;;;;;;1.67;96.66;98735.38;106044;1317;141658;-61
2021/12/07 03:40:56;;;;;;;32.70;17.60;;;;;;;1.68;96.74;98736.41;106109;1319;22396;-61
2021/12/07 03:43:24;;;;;;;31.80;18.20;;;;;;;1.68;96.56;98738.30;105777;1322;22454;-61
2021/12/07 03:45:53;;;;;;;31.20;16.60;;;;;;;1.68;96.72;98747.02;105583;1322;140438;-61
2021/12/07 03:48:22;;;;;;;34.10;17.00;;;;;;;1.69;96.67;98744.95;105661;1321;23414;-61
2021/12/07 03:50:50;;;;;;;33.70;16.00;;;;;;;1.70;96.70;98746.96;105561;1322;138595;-61
2021/12/07 03:53:18;;;;;;;33.10;17.00;;;;;;;1.71;96.69;98748.81;105640;1325;22488;-61
2021/12/07 03:55:46;;;;;;;38.10;19.10;;;;;;;1.71;96.78;98760.96;105620;1322;22468;-61
2021/12/07 03:58:14;;;;;;;34.40;17.60;;;;;;;1.71;96.65;98762.24;105462;1324;139067;-61
2021/12/07 04:00:44;;;;;;;31.40;17.90;;;;;;;1.71;96.75;98767.94;105556;1324;22774;-62
2021/12/07 04:03:14;;;;;;;34.00;17.60;;;;;;;1.71;96.56;98771.66;105656;1322;139797;-61
2021/12/07 04:05:53;;;;;;;32.00;16.10;;;;;;;1.71;96.55;98776.48;104782;1321;23036;-61
2021/12/07 04:08:26;;;;;;;33.00;18.20;;;;;;;1.71;96.56;98771.29;105513;1321;138723;-61
2021/12/07 04:10:54;;;;;;;27.10;15.10;;;;;;;1.69;96.49;98766.75;105594;1325;22680;-61
2021/12/07 04:13:24;;;;;;;29.90;16.70;;;;;;;1.67;96.44;98773.22;105785;1321;22579;-61
2021/12/07 04:15:52;;;;;;;28.70;15.50;;;;;;;1.66;96.32;98774.66;105615;1322;138542;-61
2021/12/07 04:18:20;;;;;;;27.40;15.10;;;;;;;1.67;96.53;98774.21;105828;1322;23589;-61
2021/12/07 04:20:49;;;;;;;28.00;15.70;;;;;;;1.68;96.42;98775.31;105523;1324;138840;-61
2021/12/07 04:23:17;;;;;;;28.50;15.10;;;;;;;1.68;96.32;98776.31;105987;1318;22563;-61
2021/12/07 04:25:45;;;;;;;28.00;15.10;;;;;;;1.67;96.24;98781.18;106208;1318;22387;-61
2021/12/07 04:28:13;;;;;;;24.70;15.30;;;;;;;1.67;96.33;98783.91;106049;1319;139800;-61
2021/12/07 04:30:41;;;;;;;24.20;13.80;;;;;;;1.69;96.36;98781.34;105961;1316;22493;-61
2021/12/07 04:33:12;;;;;;;24.00;15.20;;;;;;;1.67;96.24;98773.17;105960;1318;138545;-61
2021/12/07 04:35:46;;;;;;;22.90;14.00;;;;;;;1.63;96.09;98767.16;105089;1316;293793;-60
2021/12/07 04:38:15;;;;;;;24.10;13.80;;;;;;;1.59;96.03;98774.35;102085;1322;139321;-60
2021/12/07 04:40:43;;;;;;;24.00;14.00;;;;;;;1.56;96.08;98781.57;102145;1318;24152;-60
2021/12/07 04:43:11;;;;;;;23.80;14.80;;;;;;;1.57;96.20;98786.98;102148;1320;22598;-59
2021/12/07 04:59:09;;;;;;;33.70;16.90;;;;;;;1.56;96.36;98802.14;106179;1317;23234;-62
2021/12/07 05:01:38;;;;;;;30.30;16.50;;;;;;;1.58;96.33;98811.38;106147;1316;23131;-61
2021/12/07 05:04:12;;;;;;;34.00;18.20;;;;;;;1.57;96.22;98812.29;106028;1316;137991;-62
2021/12/07 05:06:49;;;;;;;35.90;19.50;;;;;;;1.58;96.21;98809.99;106206;1316;22453;-62
2021/12/07 05:12:22;;;;;;;32.50;18.60;;;;;;;1.60;96.09;98804.27;106151;1317;22482;-62
2021/12/07 05:14:45;;;;;;;;;;;;;;;1.58;96.23;98807.62;106106;1316;138589;-59
2021/12/07 05:38:54;;;;;;;30.00;16.00;;;;;;;1.36;95.63;98820.71;106109;1316;138237;-61
2021/12/07 05:41:23;;;;;;;32.10;16.60;;;;;;;1.36;95.70;98824.15;106194;1317;22298;-61
2021/12/07 05:43:55;;;;;;;29.50;15.60;;;;;;;1.35;95.57;98823.98;106186;1316;22391;-61
2021/12/07 05:46:23;;;;;;;29.20;16.40;;;;;;;1.35;95.76;98827.08;103809;1318;139253;-61
2021/12/07 05:48:52;;;;;;;23.60;14.10;;;;;;;1.34;95.79;98824.40;102128;1319;22574;-60
2021/12/07 05:51:19;;;;;;;21.60;13.60;;;;;;;1.32;95.75;98821.39;102057;1316;138032;-60
2021/12/07 05:53:47;;;;;;;24.90;14.60;;;;;;;1.29;95.50;98814.86;102179;1319;24288;-60
2021/12/07 05:56:16;;;;;;;27.60;14.90;;;;;;;1.27;95.49;98806.83;102032;1316;139118;-60
2021/12/07 05:58:44;;;;;;;22.60;14.20;;;;;;;1.26;95.72;98799.23;106191;1317;23840;-61
2021/12/07 06:01:12;;;;;;;26.20;15.70;;;;;;;1.25;95.74;98792.55;106149;1318;22472;-61
2021/12/07 06:03:40;;;;;;;26.70;15.50;;;;;;;1.24;95.61;98789.39;106080;1319;137999;-62
2021/12/07 06:06:14;;;;;;;26.10;17.10;;;;;;;1.25;95.70;98788.43;106211;1319;22457;-61
2021/12/07 06:08:41;;;;;;;31.50;16.70;;;;;;;1.25;95.54;98787.77;106089;1320;139104;-61
2021/12/07 06:11:09;;;;;;;31.40;17.10;;;;;;;1.24;95.64;98785.99;106191;1316;22280;-62
2021/12/07 06:13:39;;;;;;;23.20;15.80;;;;;;;1.24;95.47;98797.55;106165;1318;22496;-62
2021/12/07 06:16:08;;;;;;;30.30;18.00;;;;;;;1.23;95.49;98802.84;106080;1318;139679;-62
2021/12/07 06:18:37;;;;;;;29.00;19.30;;;;;;;1.22;95.61;98798.51;106188;1316;23126;-61
2021/12/07 06:21:05;;;;;;;29.30;17.80;;;;;;;1.21;95.43;98802.44;105726;1318;138458;-61
2021/12/07 06:23:34;;;;;;;26.40;16.30;;;;;;;1.18;95.07;98808.18;106168;1323;22507;-61
2021/12/07 06:26:03;;;;;;;26.40;15.20;;;;;;;1.18;95.28;98809.75;106185;1318;22450;-61
2021/12/07 06:28:31;;;;;;;20.70;13.90;;;;;;;1.16;95.20;98812.66;106026;1319;137852;-61
2021/12/07 06:30:59;;;;;;;21.40;13.60;;;;;;;1.15;95.01;98812.98;106190;1318;22418;-61
2021/12/07 06:33:27;;;;;;;21.40;12.80;;;;;;;1.15;95.00;98815.41;106070;1316;139235;-62
2021/12/07 06:35:57;;;;;;;20.70;13.20;;;;;;;1.14;95.00;98819.09;106149;1319;22618;-61
2021/12/07 06:38:30;;;;;;;19.90;13.20;;;;;;;1.13;94.89;98821.15;106067;1318;139086;-61
2021/12/07 06:40:59;;;;;;;21.30;12.10;;;;;;;1.12;94.78;98823.63;106176;1320;23363;-61
2021/12/07 06:43:28;;;;;;;18.60;11.60;;;;;;;1.11;94.88;98827.34;106211;1316;23462;-62
2021/12/07 06:45:56;;;;;;;18.10;12.20;;;;;;;1.12;94.93;98831.77;105923;1318;138066;-61
2021/12/07 06:48:25;;;;;;;20.60;13.30;;;;;;;1.14;94.73;98829.23;106121;1319;22468;-61
2021/12/07 06:50:53;;;;;;;19.00;11.80;;;;;;;1.15;94.87;98831.24;106119;1319;138327;-61
2021/12/07 06:53:21;;;;;;;19.90;12.30;;;;;;;1.17;94.76;98832.70;106192;1319;22259;-61
2021/12/07 06:55:49;;;;;;;19.70;12.90;;;;;;;1.19;94.77;98838.68;106242;1316;22482;-61
2021/12/07 06:58:17;;;;;;;22.00;13.20;;;;;;;1.22;94.68;98833.69;105964;1316;137941;-61
2021/12/07 07:00:45;;;;;;;24.90;16.00;;;;;;;1.22;94.83;98829.80;106101;1317;22398;-61
2021/12/07 07:03:13;;;;;;;21.70;13.90;;;;;;;1.23;94.68;98841.15;106112;1316;138425;-62
2021/12/07 07:05:41;;;;;;;19.90;12.00;;;;;;;1.24;94.67;98846.80;106164;1317;23166;-62
2021/12/07 07:08:20;;;;;;;21.20;11.70;;;;;;;1.24;94.43;98845.57;106040;1318;138423;-61
2021/12/07 07:10:48;;;;;;;21.60;11.60;;;;;;;1.25;94.42;98844.27;106106;1318;22423;-61
2021/12/07 07:13:16;;;;;;;20.80;13.60;;;;;;;1.23;94.44;98847.75;106204;1316;22575;-62
2021/12/07 07:15:44;;;;;;;21.40;13.00;;;;;;;1.21;94.33;98851.60;106110;1316;138525;-61
2021/12/07 07:18:17;;;;;;;19.70;12.50;;;;;;;1.20;94.15;98849.08;105071;1322;22362;-61
2021/12/07 07:20:45;;;;;;;20.00;12.50;;;;;;;1.18;94.17;98850.95;106036;1316;138403;-61
2021/12/07 07:23:13;;;;;;;17.90;10.70;;;;;;;1.18;94.13;98858.83;106190;1316;22430;-61
2021/12/07 07:25:41;;;;;;;17.60;10.70;;;;;;;1.18;94.18;98862.02;106198;1316;22479;-61
2021/12/07 07:28:09;;;;;;;19.10;10.50;;;;;;;1.20;94.05;98869.02;106091;1316;138335;-61
2021/12/07 07:30:37;;;;;;;24.20;13.10;;;;;;;1.21;93.94;98872.40;106214;1316;22301;-61
2021/12/07 07:33:05;;;;;;;19.50;11.90;;;;;;;1.23;94.02;98877.27;106091;1319;139701;-62
2021/12/07 07:35:34;;;;;;;21.10;12.20;;;;;;;1.24;93.90;98882.52;106247;1316;22446;-61
2021/12/07 07:38:02;;;;;;;22.20;12.60;;;;;;;1.24;94.05;98886.64;106160;1316;22395;-61
2021/12/07 07:40:30;;;;;;;14.50;9.50;;;;;;;1.24;93.83;98887.21;106050;1319;139251;-61
2021/12/07 07:42:58;;;;;;;14.60;9.10;;;;;;;1.22;93.62;98881.19;105329;1323;22988;-62
2021/12/07 07:46:00;;;;;;;11.50;7.40;;;;;;;1.19;93.42;98886.32;105845;1319;138476;-62
2021/12/07 07:48:30;;;;;;;12.80;9.10;;;;;;;1.17;93.45;98885.98;106167;1319;22382;-62
2021/12/07 07:50:59;;;;;;;12.50;7.50;;;;;;;1.17;93.44;98883.88;106083;1319;138880;-62
2021/12/07 07:53:27;;;;;;;13.40;8.90;;;;;;;1.17;93.39;98885.13;106174;1316;22495;-62
2021/12/07 07:55:57;;;;;;;13.10;8.30;;;;;;;1.14;93.34;98883.89;104798;1319;24460;-61
2021/12/07 07:58:25;;;;;;;11.90;7.60;;;;;;;1.15;93.21;98885.02;106088;1316;138455;-62
2021/12/07 08:00:54;;;;;;;18.70;8.70;;;;;;;1.16;93.18;98886.21;106208;1316;23165;-62
2021/12/07 08:03:22;;;;;;;13.00;8.00;;;;;;;1.16;93.27;98890.24;106096;1316;138269;-62
2021/12/07 08:05:50;;;;;;;13.40;7.80;;;;;;;1.16;93.10;98890.95;106166;1319;23072;-62
2021/12/07 08:08:19;;;;;;;9.70;7.10;;;;;;;1.15;92.96;98888.30;106072;1319;138146;-62
2021/12/07 08:10:48;;;;;;;11.00;6.60;;;;;;;1.13;92.92;98887.64;106218;1319;22471;-62
2021/12/07 08:13:19;;;;;;;10.30;6.40;;;;;;;1.11;92.82;98886.33;106089;1318;22487;-62
2021/12/07 08:15:49;;;;;;;10.40;7.00;;;;;;;1.09;92.78;98880.30;106054;1319;138799;-62
2021/12/07 08:18:17;;;;;;;8.10;5.60;;;;;;;1.09;92.75;98877.21;105224;1320;22449;-61
2021/12/07 08:20:45;;;;;;;9.20;5.40;;;;;;;1.06;92.82;98869.62;106104;1316;138221;-62
2021/12/07 08:23:13;;;;;;;9.30;5.30;;;;;;;1.04;92.48;98871.36;106247;1319;23632;-61
2021/12/07 08:25:43;;;;;;;7.90;5.60;;;;;;;1.01;92.40;98874.38;106185;1319;22399;-61
2021/12/07 08:28:13;;;;;;;8.40;5.80;;;;;;;1.00;92.31;98871.27;106097;1319;137840;-61
2021/12/07 08:30:42;;;;;;;7.30;5.00;;;;;;;0.99;92.60;98876.05;106043;1319;22860;-62
2021/12/07 08:33:10;;;;;;;9.20;6.60;;;;;;;0.98;92.31;98882.09;105967;1318;138820;-61
2021/12/07 08:37:52;;;;;;;10.10;6.60;;;;;;;0.97;92.43;98887.70;99282;1357;546121;-59
2021/12/07 08:40:22;;;;;;;10.90;7.40;;;;;;;0.95;92.31;98888.32;100767;1331;137444;-60
2021/12/07 08:42:51;;;;;;;9.40;7.40;;;;;;;0.95;92.30;98888.33;100810;1331;22706;-60
2021/12/07 08:45:20;;;;;;;9.80;7.80;;;;;;;0.95;92.08;98887.05;104645;1331;138035;-61
2021/12/07 08:47:48;;;;;;;11.30;7.90;;;;;;;0.95;92.10;98883.58;104792;1330;22428;-61
2021/12/07 08:50:19;;;;;;;11.90;8.20;;;;;;;0.92;92.13;98888.36;104091;1338;138807;-61
2021/12/07 08:52:47;;;;;;;11.40;7.60;;;;;;;0.92;92.17;98892.25;104941;1328;23199;-61
2021/12/07 09:00:34;;;;;;;18.20;10.10;;;;;;;0.91;92.13;98894.23;104986;1327;23312;-61
2021/12/07 09:03:02;;;;;;;13.60;8.40;;;;;;;0.93;92.21;98885.73;104970;1327;139004;-61
2021/12/07 09:05:31;;;;;;;16.80;8.90;;;;;;;0.93;91.93;98887.00;105003;1328;22491;-61
2021/12/07 09:07:59;;;;;;;12.00;8.00;;;;;;;0.92;92.17;98879.29;105072;1327;22605;-61
2021/12/07 09:10:27;;;;;;;11.60;7.90;;;;;;;0.91;91.88;98870.13;104877;1328;139439;-61
2021/12/07 09:12:55;;;;;;;11.70;7.90;;;;;;;0.90;91.95;98867.98;104991;1328;24910;-61
2021/12/07 09:15:23;;;;;;;20.80;10.00;;;;;;;0.89;91.71;98863.86;104915;1327;137474;-61
2021/12/07 09:17:51;;;;;;;13.20;8.40;;;;;;;0.88;92.06;98866.98;105012;1327;23172;-61
2021/12/07 09:20:19;;;;;;;11.80;8.50;;;;;;;0.89;92.04;98869.56;104950;1327;137890;-61
2021/12/07 09:22:48;;;;;;;12.90;8.90;;;;;;;0.89;92.10;98867.16;105019;1328;22512;-61
2021/12/07 09:25:17;;;;;;;12.70;8.00;;;;;;;0.89;91.93;98860.98;105022;1328;22412;-62
2021/12/07 09:27:45;;;;;;;13.30;8.70;;;;;;;0.87;91.88;98857.42;104891;1327;137629;-61
2021/12/07 09:30:15;;;;;;;14.50;9.50;;;;;;;0.86;92.08;98854.94;104985;1327;22495;-61
2021/12/07 09:32:46;;;;;;;12.90;8.90;;;;;;;0.85;92.01;98848.43;104936;1327;139095;-61
2021/12/07 09:35:15;;;;;;;14.10;8.80;;;;;;;0.85;91.75;98846.08;105015;1328;23252;-61
2021/12/07 09:37:51;;;;;;;16.00;10.60;;;;;;;0.87;91.98;98848.73;104988;1327;22470;-61
2021/12/07 09:40:19;;;;;;;17.10;9.80;;;;;;;0.86;91.88;98849.16;106003;1318;137620;-61
2021/12/07 09:42:48;;;;;;;16.00;10.50;;;;;;;0.86;92.14;98850.52;105815;1318;22270;-62
2021/12/07 09:45:16;;;;;;;16.20;10.80;;;;;;;0.87;92.15;98848.69;106006;1318;138201;-61
2021/12/07 09:47:45;;;;;;;15.80;9.60;;;;;;;0.87;92.08;98844.36;106121;1318;23166;-61
2021/12/07 09:50:16;;;;;;;14.50;9.70;;;;;;;0.87;91.97;98843.32;106085;1318;137608;-62
2021/12/07 09:52:44;;;;;;;15.50;10.50;;;;;;;0.86;92.08;98834.45;106104;1318;22655;-61
2021/12/07 09:55:13;;;;;;;15.20;10.40;;;;;;;0.84;92.06;98829.62;105038;1325;23098;-61
2021/12/07 09:57:41;;;;;;;18.50;11.10;;;;;;;0.85;92.11;98830.03;106051;1320;138071;-61
2021/12/07 10:00:12;;;;;;;15.30;9.90;;;;;;;0.87;92.33;98832.44;106139;1318;23161;-62
2021/12/07 10:02:46;;;;;;;13.20;8.90;;;;;;;0.87;92.33;98831.12;105141;1318;138048;-61
2021/12/07 10:05:17;;;;;;;14.90;9.50;;;;;;;0.87;92.32;98832.02;106123;1318;22480;-55
2021/12/07 10:07:52;;;;;;;17.50;8.70;;;;;;;0.88;92.28;98831.23;106156;1318;22466;-60
2021/12/07 10:10:29;;;;;;;19.10;10.30;;;;;;;0.89;92.64;98829.99;105889;1320;137775;-60
2021/12/07 10:12:57;;;;;;;20.40;10.90;;;;;;;0.90;92.57;98826.98;105953;1321;22405;-59
2021/12/07 10:15:26;;;;;;;14.00;9.40;;;;;;;0.90;92.60;98833.21;105962;1322;138854;-59
2021/12/07 10:18:09;;;;;;;13.20;8.60;;;;;;;0.90;92.64;98835.27;106015;1317;22513;-59
2021/12/07 10:20:59;;;;;;;11.80;7.60;;;;;;;0.86;92.50;98840.20;105836;1318;137633;-61
2021/12/07 10:23:32;;;;;;;11.40;7.80;;;;;;;0.84;92.32;98839.64;106162;1318;22397;-62
2021/12/07 10:26:15;;;;;;;11.60;8.40;;;;;;;0.82;92.58;98841.17;106139;1318;22256;-59
2021/12/07 10:28:50;;;;;;;13.70;9.00;;;;;;;0.81;92.82;98846.21;106007;1318;139118;-59
2021/12/07 10:31:36;;;;;;;16.60;8.70;;;;;;;0.78;92.66;98841.19;106104;1318;22465;-59
2021/12/07 10:34:16;;;;;;;15.80;8.40;;;;;;;0.76;92.59;98833.89;105988;1318;137492;-60
2021/12/07 10:36:57;;;;;;;14.20;9.50;;;;;;;0.75;92.63;98828.77;106120;1318;22620;-60
2021/12/07 10:39:28;;;;;;;17.40;9.80;;;;;;;0.72;92.63;98821.28;106010;1318;139570;-59
2021/12/07 10:42:02;;;;;;;15.10;8.80;;;;;;;0.69;92.71;98815.03;105968;1318;22252;-61
2021/12/07 10:44:51;;;;;;;14.40;8.50;;;;;;;0.67;92.85;98812.73;105989;1318;137741;-61
2021/12/07 10:47:21;;;;;;;13.40;8.30;;;;;;;0.65;92.93;98819.54;105899;1321;22554;-60
2021/12/07 10:49:51;;;;;;;10.00;7.00;;;;;;;0.66;93.03;98822.01;106070;1318;22377;-60
2021/12/07 10:52:42;;;;;;;12.20;6.60;;;;;;;0.65;92.99;98826.05;106025;1318;138372;-60
2021/12/07 10:55:18;;;;;;;9.30;6.70;;;;;;;0.61;92.81;98827.41;106089;1318;22420;-61
2021/12/07 10:58:06;;;;;;;9.30;6.90;;;;;;;0.57;93.02;98829.62;105661;1318;138661;-61
2021/12/07 11:00:43;;;;;;;10.60;6.40;;;;;;;0.56;93.20;98838.13;106071;1318;23147;-60
2021/12/07 11:03:13;;;;;;;;;;;;;;;0.57;93.16;98847.04;105950;1318;137502;-60
2021/12/07 11:05:54;;;;;;;8.90;6.00;;;;;;;0.56;93.22;98848.23;106096;1318;22482;-61
2021/12/07 11:08:28;;;;;;;9.90;6.60;;;;;;;0.55;93.23;98846.13;106055;1318;138268;-60
2021/12/07 11:10:57;;;;;;;12.60;7.10;;;;;;;0.54;93.46;98851.49;106078;1318;22487;-60
2021/12/07 11:13:34;;;;;;;11.20;7.00;;;;;;;0.52;93.03;98853.77;106111;1318;22396;-61
2021/12/07 11:16:10;;;;;;;17.90;7.10;;;;;;;0.52;93.25;98861.06;106064;1318;138014;-61
2021/12/07 11:18:44;;;;;;;11.10;5.30;;;;;;;0.51;93.13;98860.48;106166;1318;22538;-60
2021/12/07 11:21:14;;;;;;;9.60;5.90;;;;;;;0.51;93.29;98859.98;106065;1318;137567;-60
2021/12/07 11:23:48;;;;;;;14.20;6.10;;;;;;;0.50;93.03;98851.77;106193;1317;23848;-60
2021/12/07 11:31:51;;;;;;;14.10;7.50;;;;;;;0.46;93.19;98823.54;106180;1318;22471;-60
2021/12/07 11:34:24;;;;;;;;;;;;;;;0.46;93.22;98817.11;106062;1318;137578;-62
2021/12/07 11:37:13;;;;;;;8.50;5.20;;;;;;;0.47;92.91;98818.67;106178;1318;22396;-62
2021/12/07 11:39:49;;;;;;;12.70;6.50;;;;;;;0.45;93.16;98822.80;106064;1318;138713;-62
2021/12/07 11:42:19;;;;;;;12.50;6.80;;;;;;;0.42;93.22;98825.84;106172;1318;22359;-61
2021/12/07 11:45:00;;;;;;;10.30;6.60;;;;;;;0.41;93.17;98823.45;106107;1318;137889;-61
2021/12/07 11:47:38;;;;;;;13.50;7.00;;;;;;;0.40;93.09;98824.80;106171;1317;22485;-62
2021/12/07 11:50:35;;;;;;;13.30;6.90;;;;;;;0.40;93.10;98825.39;106183;1320;23286;-62
2021/12/07 11:53:10;;;;;;;12.70;6.00;;;;;;;0.41;93.46;98827.33;106098;1319;137554;-61
2021/12/07 11:55:41;;;;;;;10.20;6.90;;;;;;;0.41;93.46;98823.90;106223;1316;22534;-62
2021/12/07 11:58:09;;;;;;;9.20;6.00;;;;;;;0.40;93.40;98819.58;105530;1316;138775;-62
2021/12/07 12:00:43;;;;;;;8.00;5.70;;;;;;;0.41;93.38;98824.77;106223;1318;22401;-62
2021/12/07 12:03:12;;;;;;;6.20;4.70;;;;;;;0.40;93.28;98830.91;106040;1316;138095;-62
2021/12/07 12:05:43;;;;;;;8.10;5.90;;;;;;;0.40;93.36;98834.70;106198;1318;22408;-62
2021/12/07 12:08:13;;;;;;;14.10;7.50;;;;;;;0.38;93.29;98838.74;104955;1325;23306;-61
2021/12/07 12:10:45;;;;;;;11.70;7.20;;;;;;;0.37;93.24;98842.61;106082;1316;137791;-62
2021/12/07 12:13:19;;;;;;;9.60;6.00;;;;;;;0.36;93.10;98845.58;106200;1322;22470;-62
2021/12/07 12:16:12;;;;;;;10.00;6.50;;;;;;;0.34;93.38;98853.34;104795;1316;138006;-61
2021/12/07 12:18:57;;;;;;;9.90;7.10;;;;;;;0.34;93.39;98850.70;106131;1318;22263;-62
2021/12/07 12:21:30;;;;;;;11.50;7.10;;;;;;;0.34;93.57;98857.13;106085;1318;139481;-62
2021/12/07 12:24:06;;;;;;;12.60;7.40;;;;;;;0.33;93.44;98864.75;106123;1318;22448;-62
2021/12/07 12:26:36;;;;;;;11.40;7.30;;;;;;;0.33;93.36;98865.45;106161;1318;23591;-62
2021/12/07 12:29:22;;;;;;;10.90;6.50;;;;;;;0.32;93.42;98860.55;104971;1325;137901;-62
2021/12/07 12:31:57;;;;;;;9.80;6.00;;;;;;;0.31;93.31;98863.55;106188;1316;22562;-62
2021/12/07 12:34:27;;;;;;;8.90;6.30;;;;;;;0.29;93.30;98864.22;105695;1316;138029;-62
2021/12/07 12:37:06;;;;;;;11.30;6.90;;;;;;;0.24;93.01;98865.56;106199;1318;23609;-61
2021/12/07 12:39:43;;;;;;;12.10;7.80;;;;;;;0.23;93.15;98863.59;105627;1321;138181;-61
2021/12/07 12:42:17;;;;;;;10.30;7.50;;;;;;;0.21;93.25;98857.44;105829;1316;23289;-61
2021/12/07 12:44:45;;;;;;;10.70;7.50;;;;;;;0.19;93.52;98849.27;106127;1318;138677;-61
2021/12/07 12:47:13;;;;;;;12.90;8.10;;;;;;;0.19;93.40;98849.68;102795;1318;25266;-60
2021/12/07 12:49:42;;;;;;;12.30;7.50;;;;;;;0.18;93.50;98849.92;102190;1318;25623;-59
2021/12/07 12:52:11;;;;;;;11.70;7.10;;;;;;;0.18;93.36;98857.84;106093;1316;137747;-61
2021/12/07 12:54:44;;;;;;;13.10;8.70;;;;;;;0.16;93.42;98853.36;106135;1320;22474;-61
2021/12/07 12:57:17;;;;;;;11.50;7.90;;;;;;;0.12;93.47;98852.14;106116;1316;138533;-61
2021/12/07 12:59:46;;;;;;;12.40;7.80;;;;;;;0.11;93.44;98854.23;106177;1316;22505;-61
2021/12/07 13:02:14;;;;;;;12.50;7.60;;;;;;;0.09;93.64;98857.48;106189;1316;23746;-61
2021/12/07 13:04:43;;;;;;;11.30;7.50;;;;;;;0.07;93.47;98854.23;106094;1318;138298;-62
2021/12/07 13:07:24;;;;;;;12.00;7.40;;;;;;;0.05;93.31;98851.42;106158;1317;22445;-61
2021/12/07 13:10:02;;;;;;;13.10;8.50;;;;;;;0.03;93.49;98853.65;106094;1318;139418;-61
2021/12/07 13:12:38;;;;;;;15.10;8.60;;;;;;;-0.00;93.63;98846.95;106200;1317;22485;-61
2021/12/07 13:15:15;;;;;;;15.10;9.00;;;;;;;-0.02;93.55;98842.34;106096;1319;138704;-56
2021/12/07 13:17:51;;;;;;;16.60;9.60;;;;;;;-0.02;93.34;98840.23;102143;1318;24452;-61
2021/12/07 13:20:25;;;;;;;16.10;10.00;;;;;;;-0.03;93.52;98843.98;106137;1319;22483;-61
2021/12/07 13:23:09;;;;;;;16.20;10.60;;;;;;;-0.03;93.55;98847.36;106070;1316;140089;-61
2021/12/07 13:25:40;;;;;;;15.30;10.40;;;;;;;-0.06;93.88;98847.98;106213;1318;23270;-61
2021/12/07 13:28:30;;;;;;;16.80;10.10;;;;;;;-0.10;93.76;98848.83;105985;1319;138727;-61
2021/12/07 13:31:14;;;;;;;17.50;10.60;;;;;;;-0.12;93.88;98844.95;105955;1320;22525;-61
2021/12/07 13:33:54;;;;;;;21.30;12.20;;;;;;;-0.12;93.74;98846.81;106107;1318;139924;-61